Time;durP1;ratioP1;P1;durP2;ratioP2;P2;SDS_P1;SDS_P2;PMS_P1;PMS_P2;Temp;Humidity;BMP_temperature;BMP_pressure;BME280_temperature;BME280_humidity;BME280_pressure;Samples;Min_cycle;Max_cycle;Signal;HPM_P1;HPM_P2
2022/07/18 00:00:48;;;;;;;14.00;4.20;;;;;;;;;;4794030;29;20055;-72
2022/07/18 00:03:19;;;;;;;9.25;4.07;;;;;;;;;;4782671;29;20089;-70
2022/07/18 00:05:49;;;;;;;9.95;3.65;;;;;;;;;;4767597;30;20492;-72
2022/07/18 00:08:19;;;;;;;9.77;3.17;;;;;;;;;;4753235;29;20051;-72
2022/07/18 00:10:50;;;;;;;6.05;2.80;;;;;;;;;;4763806;30;20575;-71
2022/07/18 00:13:21;;;;;;;9.35;3.05;;;;;;;;;;4765104;30;20072;-73
2022/07/18 00:15:52;;;;;;;7.13;2.92;;;;;;;;;;4772989;29;20063;-72
2022/07/18 00:18:22;;;;;;;7.00;2.97;;;;;;;;;;4782089;29;20139;-71
2022/07/18 00:20:53;;;;;;;8.85;3.35;;;;;;;;;;4782553;29;20059;-72
2022/07/18 00:23:24;;;;;;;16.70;6.68;;;;;;;;;;4782698;29;20066;-71
2022/07/18 00:25:55;;;;;;;11.82;4.07;;;;;;;;;;4782459;29;20063;-71
2022/07/18 00:28:25;;;;;;;8.30;3.40;;;;;;;;;;4747669;30;20064;-73
2022/07/18 00:30:55;;;;;;;6.05;2.83;;;;;;;;;;4758274;30;20064;-73
2022/07/18 00:33:26;;;;;;;5.25;2.33;;;;;;;;;;4729339;30;20071;-73
2022/07/18 00:35:59;;;;;;;4.85;2.53;;;;;;;;;;4729607;30;20056;-72
2022/07/18 00:38:31;;;;;;;6.18;2.75;;;;;;;;;;4748834;30;20060;-71
2022/07/18 00:41:01;;;;;;;7.45;2.83;;;;;;;;;;4785108;30;20055;-71
2022/07/18 00:43:32;;;;;;;8.50;4.15;;;;;;;;;;4780430;30;20059;-71
2022/07/18 00:46:03;;;;;;;12.13;6.50;;;;;;;;;;4768116;30;20233;-72
2022/07/18 00:48:33;;;;;;;7.05;3.22;;;;;;;;;;4787357;29;20063;-72
2022/07/18 00:51:03;;;;;;;5.82;2.50;;;;;;;;;;4804293;29;20066;-71
2022/07/18 00:53:35;;;;;;;6.63;2.47;;;;;;;;;;4822418;29;20076;-71
2022/07/18 00:56:06;;;;;;;8.43;3.00;;;;;;;;;;4780828;29;20473;-72
2022/07/18 00:58:36;;;;;;;10.65;4.10;;;;;;;;;;4844130;29;20101;-72
2022/07/18 01:03:56;;;;;;;6.95;2.47;;;;;;;;;;4877613;29;20060;-72
2022/07/18 01:06:27;;;;;;;5.90;2.33;;;;;;;;;;4877440;29;20064;-71
2022/07/18 01:08:58;;;;;;;4.85;2.10;;;;;;;;;;4861560;29;20441;-72
2022/07/18 01:11:29;;;;;;;4.57;2.00;;;;;;;;;;4877430;29;20065;-71
2022/07/18 01:14:01;;;;;;;5.63;1.85;;;;;;;;;;4878285;29;20057;-71
2022/07/18 01:16:33;;;;;;;7.50;2.40;;;;;;;;;;4869795;29;20729;-72
2022/07/18 01:19:04;;;;;;;5.50;2.25;;;;;;;;;;4841028;29;20060;-71
2022/07/18 01:21:34;;;;;;;5.60;2.53;;;;;;;;;;4856475;29;20061;-69
2022/07/18 01:24:05;;;;;;;4.03;1.95;;;;;;;;;;4870053;29;20060;-72
2022/07/18 01:26:36;;;;;;;4.20;1.90;;;;;;;;;;4876855;29;20590;-72
2022/07/18 01:29:08;;;;;;;5.13;2.30;;;;;;;;;;4876339;29;20065;-72
2022/07/18 01:31:38;;;;;;;4.53;1.95;;;;;;;;;;4845502;29;20101;-72
2022/07/18 01:34:08;;;;;;;5.90;2.38;;;;;;;;;;4876664;29;20076;-71
2022/07/18 01:36:40;;;;;;;5.82;2.20;;;;;;;;;;4876054;29;20557;-71
2022/07/18 01:39:10;;;;;;;7.35;2.20;;;;;;;;;;4876612;29;20065;-72
2022/07/18 01:41:40;;;;;;;5.22;2.28;;;;;;;;;;4876664;29;20068;-72
2022/07/18 01:44:11;;;;;;;6.47;2.13;;;;;;;;;;4876135;29;20072;-72
2022/07/18 01:46:42;;;;;;;6.63;2.95;;;;;;;;;;4849425;29;20052;-69
2022/07/18 01:49:13;;;;;;;5.20;2.20;;;;;;;;;;4855559;29;20058;-71
2022/07/18 01:51:47;;;;;;;4.75;2.17;;;;;;;;;;4824906;29;20101;-71
2022/07/18 01:54:20;;;;;;;6.13;2.67;;;;;;;;;;4840375;29;20062;-72
2022/07/18 01:56:51;;;;;;;4.40;2.28;;;;;;;;;;4840269;29;20054;-72
2022/07/18 01:59:23;;;;;;;5.78;2.33;;;;;;;;;;4840210;29;20054;-72
2022/07/18 02:01:54;;;;;;;5.53;2.25;;;;;;;;;;4840376;29;20053;-72
2022/07/18 02:04:59;;;;;;;5.57;2.53;;;;;;;;;;4840071;29;20069;-72
2022/07/18 02:07:15;;;;;;;5.72;2.00;;;;;;;;;;4824899;29;20053;-71
2022/07/18 02:09:45;;;;;;;5.03;2.00;;;;;;;;;;4840156;29;20057;-72
2022/07/18 02:12:15;;;;;;;4.25;1.90;;;;;;;;;;4824574;29;20203;-72
2022/07/18 02:14:45;;;;;;;5.10;2.15;;;;;;;;;;4840186;29;20164;-71
2022/07/18 02:17:15;;;;;;;4.32;1.77;;;;;;;;;;4840027;29;20062;-71
2022/07/18 02:19:46;;;;;;;5.82;2.20;;;;;;;;;;4825084;29;20050;-71
2022/07/18 02:22:17;;;;;;;4.70;2.05;;;;;;;;;;4824956;29;20514;-72
2022/07/18 02:24:47;;;;;;;4.72;2.22;;;;;;;;;;4878594;29;20056;-71
2022/07/18 02:27:17;;;;;;;4.75;1.90;;;;;;;;;;4895373;29;20060;-72
2022/07/18 02:29:48;;;;;;;6.38;2.05;;;;;;;;;;4895685;29;20497;-72
2022/07/18 02:32:18;;;;;;;5.15;2.83;;;;;;;;;;4833967;29;20068;-72
2022/07/18 02:34:50;;;;;;;5.50;1.70;;;;;;;;;;4849629;29;20055;-73
2022/07/18 02:37:20;;;;;;;5.57;2.15;;;;;;;;;;4897534;29;20052;-72
2022/07/18 02:39:50;;;;;;;5.60;1.98;;;;;;;;;;4894780;29;20444;-72
2022/07/18 02:42:20;;;;;;;5.13;1.80;;;;;;;;;;4864085;29;20056;-72
2022/07/18 02:44:51;;;;;;;5.40;2.03;;;;;;;;;;4895151;29;20536;-73
2022/07/18 02:47:21;;;;;;;4.38;2.05;;;;;;;;;;4863950;29;20060;-71
2022/07/18 02:49:51;;;;;;;5.18;2.42;;;;;;;;;;4895458;29;20056;-71
2022/07/18 02:52:22;;;;;;;6.10;2.50;;;;;;;;;;4894565;29;20052;-72
2022/07/18 02:54:52;;;;;;;6.68;2.60;;;;;;;;;;4826678;29;20050;-72
2022/07/18 02:57:23;;;;;;;5.22;2.03;;;;;;;;;;4857686;29;20057;-72
2022/07/18 02:59:54;;;;;;;6.10;2.47;;;;;;;;;;4812687;29;20057;-73
2022/07/18 03:02:24;;;;;;;4.53;2.13;;;;;;;;;;4857398;29;20060;-73
2022/07/18 03:04:54;;;;;;;6.32;2.50;;;;;;;;;;4826987;29;20058;-71
2022/07/18 03:07:24;;;;;;;5.60;2.45;;;;;;;;;;4857700;29;20135;-70
2022/07/18 03:09:55;;;;;;;6.00;2.30;;;;;;;;;;4857474;29;20061;-71
2022/07/18 03:12:26;;;;;;;6.30;2.42;;;;;;;;;;4857359;29;20057;-72
2022/07/18 03:14:56;;;;;;;5.20;2.20;;;;;;;;;;4812057;29;20072;-72
2022/07/18 03:17:26;;;;;;;7.28;2.63;;;;;;;;;;4848266;29;20058;-71
2022/07/18 03:19:57;;;;;;;4.22;2.13;;;;;;;;;;4838835;29;20504;-71
2022/07/18 03:22:27;;;;;;;6.50;2.47;;;;;;;;;;4838849;29;20102;-73
2022/07/18 03:24:57;;;;;;;6.30;2.50;;;;;;;;;;4838761;29;20053;-73
2022/07/18 03:27:27;;;;;;;7.20;2.40;;;;;;;;;;4839023;29;20411;-72
2022/07/18 03:29:58;;;;;;;7.85;2.92;;;;;;;;;;4856373;29;20079;-72
2022/07/18 03:32:29;;;;;;;6.28;2.63;;;;;;;;;;4884720;29;20056;-71
2022/07/18 03:34:59;;;;;;;7.40;2.70;;;;;;;;;;4863152;29;20071;-72
2022/07/18 03:37:29;;;;;;;9.10;2.90;;;;;;;;;;4863114;29;20056;-72
2022/07/18 03:39:59;;;;;;;8.40;3.33;;;;;;;;;;4894108;29;20056;-71
2022/07/18 03:42:30;;;;;;;6.88;2.85;;;;;;;;;;4856532;29;20175;-72
2022/07/18 03:45:00;;;;;;;8.20;2.70;;;;;;;;;;4856976;29;20068;-71
2022/07/18 03:47:30;;;;;;;5.03;2.17;;;;;;;;;;4856945;29;20806;-72
2022/07/18 03:50:00;;;;;;;6.72;2.53;;;;;;;;;;4826127;29;20061;-72
2022/07/18 03:52:30;;;;;;;5.85;2.72;;;;;;;;;;4810832;29;20053;-72
2022/07/18 03:55:01;;;;;;;8.32;2.58;;;;;;;;;;4810817;29;20065;-72
2022/07/18 03:57:32;;;;;;;6.53;3.10;;;;;;;;;;4820005;29;20070;-72
2022/07/18 04:00:03;;;;;;;8.55;3.05;;;;;;;;;;4820061;29;20778;-72
2022/07/18 04:02:41;;;;;;;5.80;2.63;;;;;;;;;;4820183;29;20569;-72
2022/07/18 04:05:13;;;;;;;7.38;2.25;;;;;;;;;;4804783;29;20059;-72
2022/07/18 04:07:44;;;;;;;7.72;2.13;;;;;;;;;;4820253;29;20062;-72
2022/07/18 04:10:14;;;;;;;5.60;2.38;;;;;;;;;;4804244;29;20054;-72
2022/07/18 04:12:49;;;;;;;6.10;2.63;;;;;;;;;;4819809;29;20130;-71
2022/07/18 04:15:22;;;;;;;9.20;2.85;;;;;;;;;;4819812;29;20110;-72
2022/07/18 04:17:53;;;;;;;8.43;2.90;;;;;;;;;;4820052;29;20062;-72
2022/07/18 04:20:23;;;;;;;8.60;2.88;;;;;;;;;;4815283;29;20467;-72
2022/07/18 04:22:59;;;;;;;5.15;2.47;;;;;;;;;;4822710;29;20080;-72
2022/07/18 04:25:34;;;;;;;9.95;3.20;;;;;;;;;;4837628;29;20046;-72
2022/07/18 04:28:06;;;;;;;8.85;2.83;;;;;;;;;;4837889;29;20553;-72
2022/07/18 04:30:37;;;;;;;6.22;2.65;;;;;;;;;;4806494;29;20054;-72
2022/07/18 04:33:10;;;;;;;6.63;2.35;;;;;;;;;;4816497;29;20582;-72
2022/07/18 04:35:41;;;;;;;7.57;2.92;;;;;;;;;;4840055;29;20391;-73
2022/07/18 04:38:12;;;;;;;5.70;2.45;;;;;;;;;;4856365;29;20057;-73
2022/07/18 04:40:43;;;;;;;4.72;2.67;;;;;;;;;;4856189;29;20547;-72
2022/07/18 04:43:13;;;;;;;9.40;2.88;;;;;;;;;;4856394;29;20068;-72
2022/07/18 04:45:44;;;;;;;5.13;2.63;;;;;;;;;;4825597;29;20506;-72
2022/07/18 04:48:14;;;;;;;6.35;2.50;;;;;;;;;;4856463;29;20076;-72
2022/07/18 04:50:44;;;;;;;6.30;2.53;;;;;;;;;;4807289;29;20050;-74
2022/07/18 04:53:14;;;;;;;6.80;2.90;;;;;;;;;;4837705;29;20507;-72
2022/07/18 04:55:44;;;;;;;5.25;2.28;;;;;;;;;;4837630;29;20415;-73
2022/07/18 04:58:15;;;;;;;7.78;2.90;;;;;;;;;;4837897;29;20514;-72
2022/07/18 05:00:45;;;;;;;8.60;3.17;;;;;;;;;;4792452;29;20090;-71
2022/07/18 05:03:15;;;;;;;6.90;3.05;;;;;;;;;;4837863;29;20065;-72
2022/07/18 05:05:46;;;;;;;7.93;2.83;;;;;;;;;;4837695;29;20411;-72
2022/07/18 05:08:16;;;;;;;9.20;3.28;;;;;;;;;;4846850;29;20057;-72
2022/07/18 05:10:46;;;;;;;8.20;2.72;;;;;;;;;;4855665;29;20061;-72
2022/07/18 05:13:17;;;;;;;7.05;2.58;;;;;;;;;;4811489;29;20054;-72
2022/07/18 05:15:47;;;;;;;6.25;2.58;;;;;;;;;;4810169;29;20069;-72
2022/07/18 05:18:17;;;;;;;7.15;2.75;;;;;;;;;;4855971;29;20057;-71
2022/07/18 05:20:48;;;;;;;6.78;2.67;;;;;;;;;;4855809;29;20081;-71
2022/07/18 05:23:18;;;;;;;5.75;2.72;;;;;;;;;;4856041;29;20076;-72
2022/07/18 05:25:49;;;;;;;7.03;2.47;;;;;;;;;;4857981;29;20060;-71
2022/07/18 05:28:19;;;;;;;6.45;2.90;;;;;;;;;;4868108;29;20321;-72
2022/07/18 05:30:49;;;;;;;10.60;2.85;;;;;;;;;;4877939;29;20061;-72
2022/07/18 05:33:20;;;;;;;7.78;2.75;;;;;;;;;;4878053;29;20061;-73
2022/07/18 05:35:51;;;;;;;6.45;2.70;;;;;;;;;;4822011;29;20058;-72
2022/07/18 05:38:21;;;;;;;6.57;2.38;;;;;;;;;;4804126;29;20058;-70
2022/07/18 05:40:51;;;;;;;6.32;2.60;;;;;;;;;;4804181;29;20063;-72
2022/07/18 05:43:22;;;;;;;5.10;2.30;;;;;;;;;;4804299;29;20063;-71
2022/07/18 05:45:52;;;;;;;6.35;2.30;;;;;;;;;;4792249;29;20073;-71
2022/07/18 05:48:22;;;;;;;6.28;2.33;;;;;;;;;;4822138;29;20507;-71
2022/07/18 05:50:52;;;;;;;5.35;2.58;;;;;;;;;;4822256;29;20062;-71
2022/07/18 05:53:23;;;;;;;7.15;2.83;;;;;;;;;;4822081;29;20760;-72
2022/07/18 05:55:53;;;;;;;6.63;2.53;;;;;;;;;;4807377;29;20073;-72
2022/07/18 05:58:23;;;;;;;6.22;2.50;;;;;;;;;;4822052;29;20067;-71
2022/07/18 06:00:54;;;;;;;5.68;2.42;;;;;;;;;;4821842;29;20069;-71
2022/07/18 06:03:25;;;;;;;6.72;2.70;;;;;;;;;;4836849;29;20050;-71
2022/07/18 06:05:55;;;;;;;6.75;3.03;;;;;;;;;;4821977;29;20088;-72
2022/07/18 06:08:28;;;;;;;6.13;2.83;;;;;;;;;;4822054;29;20054;-71
2022/07/18 06:10:58;;;;;;;5.85;2.53;;;;;;;;;;4784994;29;20490;-71
2022/07/18 06:13:28;;;;;;;6.15;2.75;;;;;;;;;;4821305;29;20054;-71
2022/07/18 06:15:59;;;;;;;8.07;2.63;;;;;;;;;;4849081;29;20128;-72
2022/07/18 06:18:29;;;;;;;6.10;2.42;;;;;;;;;;4873666;29;20058;-72
2022/07/18 06:20:59;;;;;;;6.88;2.22;;;;;;;;;;4858242;29;20049;-71
2022/07/18 06:23:30;;;;;;;5.40;2.17;;;;;;;;;;4858387;29;20676;-71
2022/07/18 06:26:01;;;;;;;6.95;2.20;;;;;;;;;;4855810;29;20466;-71
2022/07/18 06:28:31;;;;;;;5.93;2.45;;;;;;;;;;4876657;29;20057;-71
2022/07/18 06:31:02;;;;;;;6.25;2.50;;;;;;;;;;4876656;29;20065;-71
2022/07/18 06:33:32;;;;;;;7.45;2.88;;;;;;;;;;4876663;29;20058;-72
2022/07/18 06:36:03;;;;;;;8.93;2.95;;;;;;;;;;4876386;29;20064;-72
2022/07/18 06:38:34;;;;;;;4.97;2.15;;;;;;;;;;4861491;29;20076;-72
2022/07/18 06:41:05;;;;;;;6.18;2.70;;;;;;;;;;4876600;29;20406;-72
2022/07/18 06:43:38;;;;;;;6.35;2.05;;;;;;;;;;4876600;29;20056;-72
2022/07/18 06:46:08;;;;;;;4.95;2.28;;;;;;;;;;4861232;29;20052;-72
2022/07/18 06:48:39;;;;;;;7.15;2.38;;;;;;;;;;4886055;29;20060;-72
2022/07/18 06:51:09;;;;;;;4.30;2.08;;;;;;;;;;4867646;29;20072;-72
2022/07/18 06:53:39;;;;;;;5.10;2.03;;;;;;;;;;4876295;29;20161;-71
2022/07/18 06:56:10;;;;;;;5.13;2.20;;;;;;;;;;4876477;29;20418;-71
2022/07/18 06:58:41;;;;;;;5.95;2.50;;;;;;;;;;4857586;29;20054;-72
2022/07/18 07:01:11;;;;;;;5.93;2.22;;;;;;;;;;4839077;29;20522;-71
2022/07/18 07:03:41;;;;;;;6.28;2.50;;;;;;;;;;4839312;29;20066;-70
2022/07/18 07:06:12;;;;;;;5.60;2.58;;;;;;;;;;4839398;29;20172;-72
2022/07/18 07:08:44;;;;;;;5.80;2.58;;;;;;;;;;4839066;29;20415;-71
2022/07/18 07:11:15;;;;;;;4.70;2.28;;;;;;;;;;4794299;29;20062;-71
2022/07/18 07:13:44;;;;;;;4.35;2.30;;;;;;;;;;4838950;29;20069;-71
2022/07/18 07:16:15;;;;;;;6.32;2.78;;;;;;;;;;4838843;29;20427;-71
2022/07/18 07:18:45;;;;;;;8.48;3.88;;;;;;;;;;4808391;29;20169;-72
2022/07/18 07:21:16;;;;;;;7.18;2.80;;;;;;;;;;4805466;29;20054;-71
2022/07/18 07:23:48;;;;;;;6.03;2.47;;;;;;;;;;4820787;29;20054;-72
2022/07/18 07:26:21;;;;;;;5.53;2.45;;;;;;;;;;4820670;29;20065;-72
2022/07/18 07:29:25;;;;;;;7.07;2.55;;;;;;;;;;4795692;29;20570;-72
2022/07/18 07:32:10;;;;;;;6.13;2.35;;;;;;;;;;4843763;29;20410;-71
2022/07/18 07:34:42;;;;;;;5.63;2.95;;;;;;;;;;4857175;29;20065;-71
2022/07/18 07:37:13;;;;;;;5.93;2.58;;;;;;;;;;4856905;29;20533;-72
2022/07/18 07:39:44;;;;;;;6.47;1.83;;;;;;;;;;4825090;29;20073;-72
2022/07/18 07:42:15;;;;;;;8.07;2.63;;;;;;;;;;4820627;29;20081;-72
2022/07/18 07:44:46;;;;;;;8.93;3.28;;;;;;;;;;4820604;29;20179;-70
2022/07/18 07:47:17;;;;;;;5.60;2.13;;;;;;;;;;4789932;29;20476;-71
2022/07/18 07:49:48;;;;;;;6.10;2.67;;;;;;;;;;4789494;29;20070;-72
2022/07/18 07:52:20;;;;;;;5.90;2.67;;;;;;;;;;4820274;29;20066;-72
2022/07/18 07:54:51;;;;;;;6.70;2.75;;;;;;;;;;4820577;29;20049;-72
2022/07/18 07:57:22;;;;;;;6.32;2.85;;;;;;;;;;4820260;29;20058;-71
2022/07/18 07:59:53;;;;;;;6.32;2.60;;;;;;;;;;4852929;29;20054;-72
2022/07/18 08:02:24;;;;;;;10.70;3.30;;;;;;;;;;4856668;29;20078;-71
2022/07/18 08:04:54;;;;;;;7.22;3.30;;;;;;;;;;4856737;29;20433;-72
2022/07/18 08:07:25;;;;;;;9.77;2.90;;;;;;;;;;4873068;29;20057;-71
2022/07/18 08:09:56;;;;;;;6.82;2.90;;;;;;;;;;4802888;29;20056;-72
2022/07/18 08:12:27;;;;;;;7.18;2.88;;;;;;;;;;4838213;29;20550;-72
2022/07/18 08:14:58;;;;;;;5.32;2.55;;;;;;;;;;4838379;29;20068;-72
2022/07/18 08:17:29;;;;;;;4.78;2.33;;;;;;;;;;4847962;29;20434;-71
2022/07/18 08:20:00;;;;;;;6.20;3.03;;;;;;;;;;4819961;29;20077;-72
2022/07/18 08:22:31;;;;;;;6.53;2.95;;;;;;;;;;4805516;29;20439;-71
2022/07/18 08:25:03;;;;;;;9.45;3.05;;;;;;;;;;4775348;29;20067;-72
2022/07/18 08:27:34;;;;;;;8.30;3.38;;;;;;;;;;4820315;29;20512;-71
2022/07/18 08:30:05;;;;;;;6.65;3.38;;;;;;;;;;4820500;29;20059;-71
2022/07/18 08:32:37;;;;;;;9.25;3.30;;;;;;;;;;4805578;29;20066;-72
2022/07/18 08:35:09;;;;;;;14.48;3.13;;;;;;;;;;4783736;29;20062;-70
2022/07/18 08:37:58;;;;;;;7.35;3.33;;;;;;;;;;4783698;29;20060;-72
2022/07/18 08:44:41;;;;;;;7.10;2.50;;;;;;;;;;4730770;30;20068;-71
2022/07/18 08:47:55;;;;;;;7.40;2.95;;;;;;;;;;4762056;30;20059;-71
2022/07/18 08:50:38;;;;;;;6.97;2.90;;;;;;;;;;4780255;29;20063;-71
2022/07/18 08:53:10;;;;;;;6.95;2.55;;;;;;;;;;4779714;29;20059;-71
2022/07/18 08:55:41;;;;;;;6.60;3.22;;;;;;;;;;4765780;30;20051;-71
2022/07/18 08:58:14;;;;;;;7.00;2.58;;;;;;;;;;4778344;30;20648;-71
2022/07/18 09:01:05;;;;;;;5.05;2.17;;;;;;;;;;4786023;29;20063;-71
2022/07/18 09:03:36;;;;;;;6.20;2.63;;;;;;;;;;4787178;30;20070;-71
2022/07/18 09:06:13;;;;;;;7.97;2.55;;;;;;;;;;4756980;30;20059;-71
2022/07/18 09:09:01;;;;;;;6.90;2.67;;;;;;;;;;4757244;30;20063;-71
2022/07/18 09:11:32;;;;;;;8.85;2.80;;;;;;;;;;4756739;30;20063;-72
2022/07/18 09:14:41;;;;;;;9.07;3.20;;;;;;;;;;4786804;30;20056;-71
2022/07/18 09:17:13;;;;;;;7.65;3.13;;;;;;;;;;4790516;29;20063;-71
2022/07/18 09:20:08;;;;;;;11.52;4.18;;;;;;;;;;4866648;29;20093;-71
2022/07/18 09:22:44;;;;;;;8.05;3.58;;;;;;;;;;4817570;29;20064;-71
2022/07/18 09:25:20;;;;;;;9.52;3.65;;;;;;;;;;4817204;29;20053;-70
2022/07/18 09:27:53;;;;;;;11.43;4.10;;;;;;;;;;4878084;29;20045;-71
2022/07/18 09:30:35;;;;;;;14.40;4.63;;;;;;;;;;4831779;29;20060;-71
2022/07/18 09:33:08;;;;;;;11.20;3.40;;;;;;;;;;4877843;29;20464;-72
2022/07/18 09:35:48;;;;;;;12.82;4.45;;;;;;;;;;4845325;29;20060;-70
2022/07/18 09:38:21;;;;;;;11.13;3.72;;;;;;;;;;4896787;29;20524;-72
2022/07/18 09:40:54;;;;;;;4.82;1.75;;;;;;;;;;4850096;29;20560;-71
2022/07/18 09:43:27;;;;;;;7.53;2.38;;;;;;;;;;4880950;29;20464;-71
2022/07/18 09:45:57;;;;;;;;;;;;;;;;;;4896817;29;20048;-72
2022/07/18 09:48:29;;;;;;;1.38;0.68;;;;;;;;;;4896413;29;19935;-72
2022/07/18 09:51:08;;;;;;;2.75;1.42;;;;;;;;;;4846452;29;20056;-72
2022/07/18 09:53:41;;;;;;;4.03;1.67;;;;;;;;;;4877775;29;20064;-72
2022/07/18 09:56:23;;;;;;;5.57;2.50;;;;;;;;;;4862667;29;20068;-71
2022/07/18 09:58:56;;;;;;;4.03;1.92;;;;;;;;;;4858513;29;20057;-72
2022/07/18 10:01:28;;;;;;;6.35;2.28;;;;;;;;;;4858575;29;20414;-72
2022/07/18 10:04:00;;;;;;;5.22;2.15;;;;;;;;;;4843545;29;20167;-71
2022/07/18 10:06:31;;;;;;;7.40;2.63;;;;;;;;;;4843796;29;20045;-72
2022/07/18 10:09:02;;;;;;;9.98;3.58;;;;;;;;;;4821511;29;20069;-72
2022/07/18 10:11:33;;;;;;;14.43;2.80;;;;;;;;;;4820670;29;20058;-74
2022/07/18 10:14:04;;;;;;;10.23;3.13;;;;;;;;;;4821832;29;20065;-73
2022/07/18 10:16:35;;;;;;;9.50;3.05;;;;;;;;;;4793988;29;20548;-75
2022/07/18 10:19:05;;;;;;;11.48;3.72;;;;;;;;;;4755941;29;20535;-75
2022/07/18 10:21:36;;;;;;;11.82;4.50;;;;;;;;;;4785562;29;20059;-74
2022/07/18 10:24:06;;;;;;;10.05;3.55;;;;;;;;;;4726897;29;20074;-72
2022/07/18 10:26:36;;;;;;;10.00;3.85;;;;;;;;;;4785366;29;20063;-73
2022/07/18 10:29:06;;;;;;;14.35;4.05;;;;;;;;;;4810348;29;20134;-74
2022/07/18 10:31:39;;;;;;;22.50;4.50;;;;;;;;;;4821564;29;20053;-73
2022/07/18 10:34:12;;;;;;;26.75;6.18;;;;;;;;;;4836200;29;20065;-73
2022/07/18 10:36:51;;;;;;;25.50;8.32;;;;;;;;;;4854045;29;20064;-72
2022/07/18 10:39:34;;;;;;;41.08;17.92;;;;;;;;;;4876661;29;20084;-72
2022/07/18 10:42:04;;;;;;;190.13;121.45;;;;;;;;;;4876472;29;20049;-72
2022/07/18 10:44:36;;;;;;;44.67;22.70;;;;;;;;;;4876638;29;20053;-73
2022/07/18 10:49:47;;;;;;;15.85;5.00;;;;;;;;;;4864193;29;20044;-73
2022/07/18 10:52:27;;;;;;;16.30;5.53;;;;;;;;;;4897411;29;20059;-74
2022/07/18 10:55:04;;;;;;;;;;;;;;;;;;4880501;29;20059;-73
2022/07/18 10:57:38;;;;;;;16.10;5.47;;;;;;;;;;4894776;29;19924;-72
2022/07/18 11:00:15;;;;;;;19.50;9.10;;;;;;;;;;4863743;29;20056;-73
2022/07/18 11:02:48;;;;;;;18.90;8.85;;;;;;;;;;4875882;29;20445;-73
2022/07/18 11:05:26;;;;;;;21.33;9.23;;;;;;;;;;4876272;29;20470;-73
2022/07/18 11:07:59;;;;;;;25.83;11.80;;;;;;;;;;4860192;29;20465;-72
2022/07/18 11:10:45;;;;;;;55.25;23.65;;;;;;;;;;4844979;29;20101;-73
2022/07/18 11:13:36;;;;;;;115.38;43.83;;;;;;;;;;4845276;29;20077;-70
2022/07/18 11:16:14;;;;;;;44.50;18.02;;;;;;;;;;4875255;29;20395;-72
2022/07/18 11:18:45;;;;;;;19.55;8.02;;;;;;;;;;4838727;29;20415;-73
2022/07/18 11:21:24;;;;;;;21.38;5.97;;;;;;;;;;4838841;29;20444;-73
2022/07/18 11:24:02;;;;;;;28.92;12.00;;;;;;;;;;4838779;29;20069;-72
2022/07/18 11:26:32;;;;;;;18.02;5.85;;;;;;;;;;4823978;29;20057;-73
2022/07/18 11:29:11;;;;;;;20.20;8.90;;;;;;;;;;4838875;29;20058;-72
2022/07/18 11:31:56;;;;;;;90.70;41.13;;;;;;;;;;4838873;29;20042;-72
2022/07/18 11:34:27;;;;;;;17.23;7.85;;;;;;;;;;4790183;29;20070;-72
2022/07/18 11:37:17;;;;;;;14.43;6.22;;;;;;;;;;4820879;29;20069;-72
2022/07/18 11:39:48;;;;;;;13.45;5.40;;;;;;;;;;4829160;29;20061;-72
2022/07/18 11:42:34;;;;;;;12.35;5.45;;;;;;;;;;4811323;29;20057;-72
2022/07/18 11:45:08;;;;;;;18.20;6.57;;;;;;;;;;4836091;29;20065;-72
2022/07/18 11:47:52;;;;;;;19.75;6.32;;;;;;;;;;4820199;29;20062;-70
2022/07/18 11:50:37;;;;;;;15.38;5.90;;;;;;;;;;4834856;29;20063;-71
2022/07/18 11:53:09;;;;;;;84.97;43.92;;;;;;;;;;4790040;29;20062;-71
2022/07/18 11:55:40;;;;;;;19.40;8.70;;;;;;;;;;4830981;29;20071;-71
2022/07/18 11:58:12;;;;;;;16.75;5.63;;;;;;;;;;4889997;29;20060;-71
2022/07/18 12:00:44;;;;;;;27.48;7.47;;;;;;;;;;4893839;29;20045;-71
2022/07/18 12:03:19;;;;;;;82.55;43.25;;;;;;;;;;4893812;29;20064;-71
2022/07/18 12:05:52;;;;;;;26.92;8.85;;;;;;;;;;4893997;29;20072;-72
2022/07/18 12:08:34;;;;;;;13.85;6.10;;;;;;;;;;4893872;29;20064;-71
2022/07/18 12:11:34;;;;;;;14.95;6.18;;;;;;;;;;4847257;29;20068;-70
2022/07/18 12:14:15;;;;;;;14.27;5.35;;;;;;;;;;4801946;29;20063;-71
2022/07/18 12:16:57;;;;;;;16.52;6.43;;;;;;;;;;4786954;29;20595;-71
2022/07/18 12:19:37;;;;;;;27.90;9.63;;;;;;;;;;4786572;29;20596;-71
2022/07/18 12:22:10;;;;;;;96.03;46.45;;;;;;;;;;4801672;29;20058;-71
2022/07/18 12:24:56;;;;;;;48.80;19.30;;;;;;;;;;4772142;29;20065;-71
2022/07/18 12:27:33;;;;;;;69.97;30.77;;;;;;;;;;4801681;29;20054;-71
2022/07/18 12:30:19;;;;;;;455.58;317.52;;;;;;;;;;4783406;29;20535;-72
2022/07/18 12:32:58;;;;;;;32.60;12.50;;;;;;;;;;4783667;29;20070;-72
2022/07/18 12:35:34;;;;;;;26.10;10.02;;;;;;;;;;4774816;29;20414;-72
2022/07/18 12:38:16;;;;;;;32.50;9.80;;;;;;;;;;4767435;29;20055;-72
2022/07/18 12:40:51;;;;;;;27.80;10.48;;;;;;;;;;4789516;29;20071;-71
2022/07/18 12:43:33;;;;;;;44.83;16.85;;;;;;;;;;4789455;29;20070;-71
2022/07/18 12:46:07;;;;;;;43.50;17.33;;;;;;;;;;4789520;29;20073;-71
2022/07/18 12:48:39;;;;;;;39.47;13.07;;;;;;;;;;4774413;29;20436;-71
2022/07/18 12:51:12;;;;;;;43.30;12.38;;;;;;;;;;4824548;29;20417;-71
2022/07/18 12:53:44;;;;;;;139.43;63.55;;;;;;;;;;4809917;29;20057;-71
2022/07/18 12:56:14;;;;;;;45.63;15.38;;;;;;;;;;4825738;29;20089;-70
2022/07/18 12:58:45;;;;;;;45.20;14.30;;;;;;;;;;4810119;29;20423;-70
2022/07/18 13:01:16;;;;;;;35.63;13.15;;;;;;;;;;4825662;29;20066;-70
2022/07/18 13:03:46;;;;;;;36.63;12.45;;;;;;;;;;4771161;30;20682;-70
2022/07/18 13:06:16;;;;;;;43.80;13.73;;;;;;;;;;4771304;30;20528;-72
2022/07/18 13:08:49;;;;;;;36.72;11.38;;;;;;;;;;4771351;30;20055;-71
2022/07/18 13:11:19;;;;;;;39.13;12.43;;;;;;;;;;4738183;30;20098;-71
2022/07/18 13:13:56;;;;;;;27.88;8.77;;;;;;;;;;4753479;30;20068;-72
2022/07/18 13:16:26;;;;;;;25.33;9.70;;;;;;;;;;4753458;30;20498;-71
2022/07/18 13:18:57;;;;;;;37.22;15.43;;;;;;;;;;4779012;30;20092;-70
2022/07/18 13:21:27;;;;;;;42.45;17.50;;;;;;;;;;4773981;30;20059;-70
2022/07/18 13:23:58;;;;;;;33.20;14.88;;;;;;;;;;4789015;30;20067;-72
2022/07/18 13:26:28;;;;;;;112.72;52.42;;;;;;;;;;4789068;30;20074;-72
2022/07/18 13:28:59;;;;;;;30.05;9.98;;;;;;;;;;4789081;30;20589;-71
2022/07/18 13:31:31;;;;;;;25.33;7.95;;;;;;;;;;4808950;29;20054;-72
2022/07/18 13:34:03;;;;;;;44.45;20.83;;;;;;;;;;4794857;29;20066;-71
2022/07/18 13:36:33;;;;;;;21.17;6.68;;;;;;;;;;4820005;29;20054;-70
2022/07/18 13:39:04;;;;;;;41.13;15.90;;;;;;;;;;4824884;29;20420;-71
2022/07/18 13:41:35;;;;;;;37.58;13.75;;;;;;;;;;4806286;29;20575;-69
2022/07/18 13:44:07;;;;;;;87.00;50.03;;;;;;;;;;4843452;29;20061;-71
2022/07/18 13:46:40;;;;;;;36.17;11.60;;;;;;;;;;4819603;29;20075;-70
2022/07/18 13:49:12;;;;;;;264.92;149.85;;;;;;;;;;4803537;29;20059;-72
2022/07/18 13:51:43;;;;;;;22.92;6.13;;;;;;;;;;4804173;29;20598;-70
2022/07/18 13:54:16;;;;;;;34.50;10.95;;;;;;;;;;4803884;29;20424;-70
2022/07/18 13:56:47;;;;;;;20.45;7.32;;;;;;;;;;4789195;29;20527;-71
2022/07/18 13:59:18;;;;;;;31.38;9.25;;;;;;;;;;4804008;29;20043;-73
2022/07/18 14:01:49;;;;;;;22.67;8.57;;;;;;;;;;4803904;29;20070;-72
2022/07/18 14:04:20;;;;;;;20.30;7.05;;;;;;;;;;4803441;29;20107;-71
2022/07/18 14:06:51;;;;;;;12.88;6.35;;;;;;;;;;4773555;29;20063;-71
2022/07/18 14:09:22;;;;;;;201.90;103.88;;;;;;;;;;4803641;29;20069;-70
2022/07/18 14:11:52;;;;;;;21.73;8.35;;;;;;;;;;4806006;29;20066;-71
2022/07/18 14:14:23;;;;;;;118.22;63.72;;;;;;;;;;4821671;29;20062;-73
2022/07/18 14:16:53;;;;;;;508.40;325.27;;;;;;;;;;4842570;29;20053;-73
2022/07/18 14:19:24;;;;;;;29.77;11.57;;;;;;;;;;4843444;29;20049;-73
2022/07/18 14:21:55;;;;;;;36.67;12.73;;;;;;;;;;4858479;29;20061;-71
2022/07/18 14:24:26;;;;;;;20.73;8.18;;;;;;;;;;4857963;29;20065;-72
2022/07/18 14:26:56;;;;;;;21.05;8.30;;;;;;;;;;4803180;29;20069;-72
2022/07/18 14:29:26;;;;;;;21.70;7.53;;;;;;;;;;4839605;29;20062;-72
2022/07/18 14:31:57;;;;;;;15.27;6.57;;;;;;;;;;4875821;29;20057;-70
2022/07/18 14:34:27;;;;;;;8.52;4.15;;;;;;;;;;4876469;29;20410;-70
2022/07/18 14:36:57;;;;;;;8.02;3.83;;;;;;;;;;4861386;29;20056;-71
2022/07/18 14:39:28;;;;;;;22.58;6.45;;;;;;;;;;4858062;29;20058;-69
2022/07/18 14:41:58;;;;;;;17.70;7.05;;;;;;;;;;4867169;29;20056;-73
2022/07/18 14:44:29;;;;;;;24.92;8.43;;;;;;;;;;4876486;29;20057;-72
2022/07/18 14:46:59;;;;;;;24.92;7.80;;;;;;;;;;4846355;29;20065;-71
2022/07/18 14:49:29;;;;;;;42.35;16.00;;;;;;;;;;4808906;29;20543;-71
2022/07/18 14:52:00;;;;;;;32.95;13.00;;;;;;;;;;4839575;29;20073;-68
2022/07/18 14:54:31;;;;;;;16.02;5.93;;;;;;;;;;4839358;29;20053;-71
2022/07/18 14:57:02;;;;;;;39.63;14.50;;;;;;;;;;4823824;29;20069;-71
2022/07/18 14:59:33;;;;;;;37.65;11.35;;;;;;;;;;4839126;29;20046;-70
2022/07/18 15:02:05;;;;;;;44.30;15.05;;;;;;;;;;4794123;29;20062;-69
2022/07/18 15:04:36;;;;;;;41.88;13.20;;;;;;;;;;4838872;29;20084;-72
2022/07/18 15:07:07;;;;;;;42.97;14.10;;;;;;;;;;4839155;29;20058;-70
2022/07/18 15:09:38;;;;;;;49.40;16.55;;;;;;;;;;4839259;29;20058;-72
2022/07/18 15:12:08;;;;;;;41.78;15.15;;;;;;;;;;4793516;29;20088;-71
2022/07/18 15:14:38;;;;;;;52.55;19.95;;;;;;;;;;4793759;29;20054;-71
2022/07/18 15:17:09;;;;;;;38.03;13.20;;;;;;;;;;4820585;29;20054;-71